PWSweather.com
Personal Weather Stations
Station Observations
IMAZOWIE6
WarszawaPL

WarszawaPL

Lat: 52.27957, Lon: 21.05489

Elevation: 100

Station Type: WS1080

http://stacjapogody.waw.pl/

High Low Average
Temperature 86.4°F30.2°F 59.7°F15.4°F 73.4°F23.0°F
Dew Point -164.2°F-109.0°F -166.8°F-110.4°F -165.5°F-109.7°F
Winds 3.4 mph 5.5 mph Calm Calm 0.8 mph 1.3 mph
Wind Gusts 6.8 mph10.9 mph -- 2.5 mph4.0 mph
Humidity 0% 0% 0%
Pressure 29.37 in994.60 in 29.24 in990.20 in -
Precipitation 0.00 in0.00 in - -
Hour Temp Dew Point Humidity Winds Wind Gusts Pressure Precip Precip Rate Daily Precip Total
12:06 AM 62.1°F16.7°C -166.6°F-110.3°C - Calm Calm 1.4 mph2.3 kmh 29.24 in990.2 mb 0.00 in0.0 mm 0.00 in0.0 mm 0.00 in0.0 mm
12:21 AM 61.9°F16.6°C -166.6°F-110.3°C - Calm Calm 1.4 mph2.3 kmh 29.24 in990.2 mb 0.00 in0.0 mm 0.00 in0.0 mm 0.00 in0.0 mm
12:36 AM 61.7°F16.5°C -166.6°F-110.3°C - Calm Calm -- 29.24 in990.2 mb 0.00 in0.0 mm 0.00 in0.0 mm 0.00 in0.0 mm
12:51 AM 61.7°F16.5°C -166.6°F-110.3°C - Calm Calm -- 29.25 in990.5 mb 0.00 in0.0 mm 0.00 in0.0 mm 0.00 in0.0 mm
01:06 AM 61.9°F16.6°C -166.6°F-110.3°C - Calm Calm 0.6 mph1.0 kmh 29.25 in990.5 mb 0.00 in0.0 mm 0.00 in0.0 mm 0.00 in0.0 mm
01:21 AM 61.5°F16.4°C -166.6°F-110.3°C - Calm Calm 2.0 mph3.2 kmh 29.25 in990.5 mb 0.00 in0.0 mm 0.00 in0.0 mm 0.00 in0.0 mm
01:36 AM 61.3°F16.3°C -166.7°F-110.4°C - Calm Calm 1.4 mph2.3 kmh 29.25 in990.5 mb 0.00 in0.0 mm 0.00 in0.0 mm 0.00 in0.0 mm
01:51 AM 61.0°F16.1°C -166.7°F-110.4°C - Calm Calm -- 29.25 in990.5 mb 0.00 in0.0 mm 0.00 in0.0 mm 0.00 in0.0 mm
02:06 AM 61.0°F16.1°C -166.7°F-110.4°C - Calm Calm 0.6 mph1.0 kmh 29.25 in990.5 mb 0.00 in0.0 mm 0.00 in0.0 mm 0.00 in0.0 mm
02:22 AM 60.6°F15.9°C -166.7°F-110.4°C - Calm Calm 0.6 mph1.0 kmh 29.24 in990.2 mb 0.00 in0.0 mm 0.00 in0.0 mm 0.00 in0.0 mm
02:37 AM 60.3°F15.7°C -166.8°F-110.4°C - Calm Calm 0.6 mph1.0 kmh 29.25 in990.5 mb 0.00 in0.0 mm 0.00 in0.0 mm 0.00 in0.0 mm
02:52 AM 59.9°F15.5°C -166.8°F-110.4°C - Calm Calm 1.4 mph2.3 kmh 29.24 in990.2 mb 0.00 in0.0 mm 0.00 in0.0 mm 0.00 in0.0 mm
03:06 AM 59.9°F15.5°C -166.8°F-110.4°C - Calm Calm -- 29.25 in990.5 mb 0.00 in0.0 mm 0.00 in0.0 mm 0.00 in0.0 mm
03:21 AM 59.9°F15.5°C -166.8°F-110.4°C - 0.6 mph N1.0 kmh N 2.8 mph4.5 kmh 29.25 in990.5 mb 0.00 in0.0 mm 0.00 in0.0 mm 0.00 in0.0 mm
03:36 AM 59.7°F15.4°C -166.8°F-110.4°C - 0.6 mph N1.0 kmh N 2.8 mph4.5 kmh 29.25 in990.5 mb 0.00 in0.0 mm 0.00 in0.0 mm 0.00 in0.0 mm
03:51 AM 60.1°F15.6°C -166.8°F-110.4°C - Calm Calm 2.0 mph3.2 kmh 29.25 in990.5 mb 0.00 in0.0 mm 0.00 in0.0 mm 0.00 in0.0 mm
04:06 AM 60.3°F15.7°C -166.8°F-110.4°C - Calm Calm 1.4 mph2.3 kmh 29.25 in990.5 mb 0.00 in0.0 mm 0.00 in0.0 mm 0.00 in0.0 mm
04:21 AM 63.1°F17.3°C -166.5°F-110.3°C - 0.6 mph N1.0 kmh N 2.0 mph3.2 kmh 29.25 in990.5 mb 0.00 in0.0 mm 0.00 in0.0 mm 0.00 in0.0 mm
04:36 AM 66.6°F19.2°C -166.1°F-110.1°C - 1.4 mph N2.3 kmh N 3.4 mph5.5 kmh 29.25 in990.5 mb 0.00 in0.0 mm 0.00 in0.0 mm 0.00 in0.0 mm
04:51 AM 69.1°F20.6°C -165.9°F-109.9°C - Calm Calm 2.8 mph4.5 kmh 29.25 in990.5 mb 0.00 in0.0 mm 0.00 in0.0 mm 0.00 in0.0 mm
05:06 AM 70.7°F21.5°C -165.7°F-109.8°C - 0.6 mph N1.0 kmh N 2.0 mph3.2 kmh 29.26 in990.9 mb 0.00 in0.0 mm 0.00 in0.0 mm 0.00 in0.0 mm
05:21 AM 73.0°F22.8°C -165.5°F-109.7°C - Calm Calm 1.4 mph2.3 kmh 29.26 in990.9 mb 0.00 in0.0 mm 0.00 in0.0 mm 0.00 in0.0 mm
05:36 AM 74.8°F23.8°C -165.3°F-109.6°C - Calm Calm 0.6 mph1.0 kmh 29.26 in990.9 mb 0.00 in0.0 mm 0.00 in0.0 mm 0.00 in0.0 mm
05:51 AM 76.5°F24.7°C -165.2°F-109.6°C - Calm Calm 2.0 mph3.2 kmh 29.26 in990.9 mb 0.00 in0.0 mm 0.00 in0.0 mm 0.00 in0.0 mm
06:06 AM 75.9°F24.4°C -165.2°F-109.6°C - 0.6 mph N1.0 kmh N 1.4 mph2.3 kmh 29.26 in990.9 mb 0.00 in0.0 mm 0.00 in0.0 mm 0.00 in0.0 mm
06:21 AM 78.6°F25.9°C -164.9°F-109.4°C - 0.6 mph N1.0 kmh N 2.0 mph3.2 kmh 29.26 in990.9 mb 0.00 in0.0 mm 0.00 in0.0 mm 0.00 in0.0 mm
06:36 AM 78.1°F25.6°C -165.0°F-109.4°C - Calm Calm 1.4 mph2.3 kmh 29.27 in991.2 mb 0.00 in0.0 mm 0.00 in0.0 mm 0.00 in0.0 mm
06:51 AM 77.4°F25.2°C -165.1°F-109.5°C - Calm Calm 0.6 mph1.0 kmh 29.28 in991.5 mb 0.00 in0.0 mm 0.00 in0.0 mm 0.00 in0.0 mm
07:06 AM 78.6°F25.9°C -164.9°F-109.4°C - 0.6 mph N1.0 kmh N 2.8 mph4.5 kmh 29.27 in991.2 mb 0.00 in0.0 mm 0.00 in0.0 mm 0.00 in0.0 mm
07:21 AM 76.1°F24.5°C -165.2°F-109.6°C - 1.4 mph N2.3 kmh N 2.8 mph4.5 kmh 29.28 in991.5 mb 0.00 in0.0 mm 0.00 in0.0 mm 0.00 in0.0 mm
07:36 AM 82.9°F28.3°C -164.5°F-109.2°C - 2.0 mph N3.2 kmh N 3.4 mph5.5 kmh 29.28 in991.5 mb 0.00 in0.0 mm 0.00 in0.0 mm 0.00 in0.0 mm
07:51 AM 79.2°F26.2°C -164.9°F-109.4°C - 0.6 mph N1.0 kmh N 2.0 mph3.2 kmh 29.28 in991.5 mb 0.00 in0.0 mm 0.00 in0.0 mm 0.00 in0.0 mm
08:06 AM 75.7°F24.3°C -165.2°F-109.6°C - 1.4 mph N2.3 kmh N 2.8 mph4.5 kmh 29.29 in991.9 mb 0.00 in0.0 mm 0.00 in0.0 mm 0.00 in0.0 mm
08:21 AM 79.7°F26.5°C -164.8°F-109.3°C - 0.6 mph N1.0 kmh N 3.4 mph5.5 kmh 29.28 in991.5 mb 0.00 in0.0 mm 0.00 in0.0 mm 0.00 in0.0 mm
08:36 AM 82.9°F28.3°C -164.5°F-109.2°C - 0.6 mph N1.0 kmh N 4.0 mph6.4 kmh 29.28 in991.5 mb 0.00 in0.0 mm 0.00 in0.0 mm 0.00 in0.0 mm
08:51 AM 84.9°F29.4°C -164.3°F-109.1°C - 1.4 mph N2.3 kmh N 2.8 mph4.5 kmh 29.28 in991.5 mb 0.00 in0.0 mm 0.00 in0.0 mm 0.00 in0.0 mm
09:06 AM 85.5°F29.7°C -164.3°F-109.1°C - 1.4 mph N2.3 kmh N 4.0 mph6.4 kmh 29.28 in991.5 mb 0.00 in0.0 mm 0.00 in0.0 mm 0.00 in0.0 mm
09:21 AM 85.6°F29.8°C -164.2°F-109.0°C - 0.6 mph N1.0 kmh N 2.8 mph4.5 kmh 29.28 in991.5 mb 0.00 in0.0 mm 0.00 in0.0 mm 0.00 in0.0 mm
09:36 AM 86.4°F30.2°C -164.2°F-109.0°C - 1.4 mph N2.3 kmh N 3.4 mph5.5 kmh 29.28 in991.5 mb 0.00 in0.0 mm 0.00 in0.0 mm 0.00 in0.0 mm
09:51 AM 84.7°F29.3°C -164.3°F-109.1°C - 2.8 mph N4.5 kmh N 5.4 mph8.7 kmh 29.28 in991.5 mb 0.00 in0.0 mm 0.00 in0.0 mm 0.00 in0.0 mm
10:06 AM 84.9°F29.4°C -164.3°F-109.1°C - Calm Calm 1.4 mph2.3 kmh 29.27 in991.2 mb 0.00 in0.0 mm 0.00 in0.0 mm 0.00 in0.0 mm
10:21 AM 85.8°F29.9°C -164.2°F-109.0°C - 2.0 mph N3.2 kmh N 4.0 mph6.4 kmh 29.27 in991.2 mb 0.00 in0.0 mm 0.00 in0.0 mm 0.00 in0.0 mm
10:36 AM 84.4°F29.1°C -164.4°F-109.1°C - 3.4 mph N5.5 kmh N 6.8 mph10.9 kmh 29.28 in991.5 mb 0.00 in0.0 mm 0.00 in0.0 mm 0.00 in0.0 mm
10:51 AM 84.0°F28.9°C -164.4°F-109.1°C - 1.4 mph N2.3 kmh N 4.0 mph6.4 kmh 29.27 in991.2 mb 0.00 in0.0 mm 0.00 in0.0 mm 0.00 in0.0 mm
11:06 AM 81.1°F27.3°C -164.7°F-109.3°C - 2.0 mph N3.2 kmh N 5.4 mph8.7 kmh 29.27 in991.2 mb 0.00 in0.0 mm 0.00 in0.0 mm 0.00 in0.0 mm
11:21 AM 79.3°F26.3°C -164.9°F-109.4°C - 2.8 mph N4.5 kmh N 6.2 mph10.0 kmh 29.28 in991.5 mb 0.00 in0.0 mm 0.00 in0.0 mm 0.00 in0.0 mm
11:36 AM 80.1°F26.7°C -164.8°F-109.3°C - 1.4 mph N2.3 kmh N 4.0 mph6.4 kmh 29.28 in991.5 mb 0.00 in0.0 mm 0.00 in0.0 mm 0.00 in0.0 mm
11:51 AM 80.6°F27.0°C -164.7°F-109.3°C - 2.0 mph N3.2 kmh N 4.0 mph6.4 kmh 29.27 in991.2 mb 0.00 in0.0 mm 0.00 in0.0 mm 0.00 in0.0 mm
12:06 PM 79.3°F26.3°C -164.9°F-109.4°C - 1.4 mph N2.3 kmh N 3.4 mph5.5 kmh 29.27 in991.2 mb 0.00 in0.0 mm 0.00 in0.0 mm 0.00 in0.0 mm
12:21 PM 80.4°F26.9°C -164.8°F-109.3°C - 0.6 mph N1.0 kmh N 2.8 mph4.5 kmh 29.27 in991.2 mb 0.00 in0.0 mm 0.00 in0.0 mm 0.00 in0.0 mm
12:36 PM 79.9°F26.6°C -164.8°F-109.3°C - 2.0 mph N3.2 kmh N 4.0 mph6.4 kmh 29.27 in991.2 mb 0.00 in0.0 mm 0.00 in0.0 mm 0.00 in0.0 mm
12:51 PM 80.4°F26.9°C -164.8°F-109.3°C - 2.0 mph N3.2 kmh N 3.4 mph5.5 kmh 29.27 in991.2 mb 0.00 in0.0 mm 0.00 in0.0 mm 0.00 in0.0 mm
01:06 PM 80.8°F27.1°C -164.7°F-109.3°C - 0.6 mph N1.0 kmh N 2.0 mph3.2 kmh 29.27 in991.2 mb 0.00 in0.0 mm 0.00 in0.0 mm 0.00 in0.0 mm
01:21 PM 81.0°F27.2°C -164.7°F-109.3°C - 2.0 mph N3.2 kmh N 4.0 mph6.4 kmh 29.27 in991.2 mb 0.00 in0.0 mm 0.00 in0.0 mm 0.00 in0.0 mm
01:36 PM 80.8°F27.1°C -164.7°F-109.3°C - 0.6 mph N1.0 kmh N 2.8 mph4.5 kmh 29.27 in991.2 mb 0.00 in0.0 mm 0.00 in0.0 mm 0.00 in0.0 mm
01:51 PM 81.0°F27.2°C -164.7°F-109.3°C - Calm Calm 2.8 mph4.5 kmh 29.27 in991.2 mb 0.00 in0.0 mm 0.00 in0.0 mm 0.00 in0.0 mm
02:06 PM 80.8°F27.1°C -164.7°F-109.3°C - 2.8 mph N4.5 kmh N 6.2 mph10.0 kmh 29.27 in991.2 mb 0.00 in0.0 mm 0.00 in0.0 mm 0.00 in0.0 mm
02:21 PM 79.2°F26.2°C -164.9°F-109.4°C - 1.4 mph N2.3 kmh N 3.4 mph5.5 kmh 29.27 in991.2 mb 0.00 in0.0 mm 0.00 in0.0 mm 0.00 in0.0 mm
02:36 PM 80.8°F27.1°C -164.7°F-109.3°C - 1.4 mph N2.3 kmh N 2.8 mph4.5 kmh 29.27 in991.2 mb 0.00 in0.0 mm 0.00 in0.0 mm 0.00 in0.0 mm
02:51 PM 81.3°F27.4°C -164.7°F-109.3°C - 1.4 mph N2.3 kmh N 2.8 mph4.5 kmh 29.27 in991.2 mb 0.00 in0.0 mm 0.00 in0.0 mm 0.00 in0.0 mm
03:06 PM 81.1°F27.3°C -164.7°F-109.3°C - 1.4 mph N2.3 kmh N 3.4 mph5.5 kmh 29.27 in991.2 mb 0.00 in0.0 mm 0.00 in0.0 mm 0.00 in0.0 mm
03:21 PM 81.0°F27.2°C -164.7°F-109.3°C - 0.6 mph N1.0 kmh N 4.8 mph7.7 kmh 29.27 in991.2 mb 0.00 in0.0 mm 0.00 in0.0 mm 0.00 in0.0 mm
03:36 PM 80.8°F27.1°C -164.7°F-109.3°C - Calm Calm 0.6 mph1.0 kmh 29.27 in991.2 mb 0.00 in0.0 mm 0.00 in0.0 mm 0.00 in0.0 mm
03:51 PM 80.1°F26.7°C -164.8°F-109.3°C - 2.8 mph N4.5 kmh N 4.8 mph7.7 kmh 29.28 in991.5 mb 0.00 in0.0 mm 0.00 in0.0 mm 0.00 in0.0 mm
04:06 PM 79.5°F26.4°C -164.8°F-109.3°C - 1.4 mph N2.3 kmh N 2.8 mph4.5 kmh 29.28 in991.5 mb 0.00 in0.0 mm 0.00 in0.0 mm 0.00 in0.0 mm
04:21 PM 79.7°F26.5°C -164.8°F-109.3°C - Calm Calm 2.8 mph4.5 kmh 29.28 in991.5 mb 0.00 in0.0 mm 0.00 in0.0 mm 0.00 in0.0 mm
04:36 PM 79.9°F26.6°C -164.8°F-109.3°C - 0.6 mph N1.0 kmh N 3.4 mph5.5 kmh 29.27 in991.2 mb 0.00 in0.0 mm 0.00 in0.0 mm 0.00 in0.0 mm
04:51 PM 79.3°F26.3°C -164.9°F-109.4°C - Calm Calm 0.6 mph1.0 kmh 29.27 in991.2 mb 0.00 in0.0 mm 0.00 in0.0 mm 0.00 in0.0 mm
05:06 PM 78.6°F25.9°C -164.9°F-109.4°C - Calm Calm -- 29.28 in991.5 mb 0.00 in0.0 mm 0.00 in0.0 mm 0.00 in0.0 mm
05:21 PM 77.0°F25.0°C -165.1°F-109.5°C - Calm Calm 0.6 mph1.0 kmh 29.29 in991.9 mb 0.00 in0.0 mm 0.00 in0.0 mm 0.00 in0.0 mm
05:36 PM 75.9°F24.4°C -165.2°F-109.6°C - Calm Calm 1.4 mph2.3 kmh 29.29 in991.9 mb 0.00 in0.0 mm 0.00 in0.0 mm 0.00 in0.0 mm
05:51 PM 75.6°F24.2°C -165.2°F-109.6°C - 1.4 mph N2.3 kmh N 3.4 mph5.5 kmh 29.28 in991.5 mb 0.00 in0.0 mm 0.00 in0.0 mm 0.00 in0.0 mm
06:06 PM 75.0°F23.9°C -165.3°F-109.6°C - 0.6 mph N1.0 kmh N 2.0 mph3.2 kmh 29.29 in991.9 mb 0.00 in0.0 mm 0.00 in0.0 mm 0.00 in0.0 mm
06:21 PM 74.5°F23.6°C -165.4°F-109.7°C - 1.4 mph N2.3 kmh N 3.4 mph5.5 kmh 29.29 in991.9 mb 0.00 in0.0 mm 0.00 in0.0 mm 0.00 in0.0 mm
06:36 PM 73.9°F23.3°C -165.4°F-109.7°C - 1.4 mph N2.3 kmh N 4.8 mph7.7 kmh 29.29 in991.9 mb 0.00 in0.0 mm 0.00 in0.0 mm 0.00 in0.0 mm
06:51 PM 73.8°F23.2°C -165.4°F-109.7°C - Calm Calm 2.0 mph3.2 kmh 29.30 in992.2 mb 0.00 in0.0 mm 0.00 in0.0 mm 0.00 in0.0 mm
07:06 PM 73.6°F23.1°C -165.4°F-109.7°C - 1.4 mph N2.3 kmh N 4.8 mph7.7 kmh 29.30 in992.2 mb 0.00 in0.0 mm 0.00 in0.0 mm 0.00 in0.0 mm
07:21 PM 73.0°F22.8°C -165.5°F-109.7°C - 1.4 mph N2.3 kmh N 2.8 mph4.5 kmh 29.32 in992.9 mb 0.00 in0.0 mm 0.00 in0.0 mm 0.00 in0.0 mm
07:36 PM 72.3°F22.4°C -165.6°F-109.8°C - 0.6 mph N1.0 kmh N 2.8 mph4.5 kmh 29.32 in992.9 mb 0.00 in0.0 mm 0.00 in0.0 mm 0.00 in0.0 mm
07:51 PM 71.4°F21.9°C -165.7°F-109.8°C - Calm Calm 1.4 mph2.3 kmh 29.33 in993.2 mb 0.00 in0.0 mm 0.00 in0.0 mm 0.00 in0.0 mm
08:06 PM 70.7°F21.5°C -165.7°F-109.8°C - Calm Calm 1.4 mph2.3 kmh 29.33 in993.2 mb 0.00 in0.0 mm 0.00 in0.0 mm 0.00 in0.0 mm
08:21 PM 69.3°F20.7°C -165.9°F-109.9°C - Calm Calm 0.6 mph1.0 kmh 29.34 in993.6 mb 0.00 in0.0 mm 0.00 in0.0 mm 0.00 in0.0 mm
08:36 PM 68.5°F20.3°C -165.9°F-109.9°C - 2.0 mph N3.2 kmh N 4.8 mph7.7 kmh 29.33 in993.2 mb 0.00 in0.0 mm 0.00 in0.0 mm 0.00 in0.0 mm
08:51 PM 68.2°F20.1°C -166.0°F-110.0°C - 0.6 mph N1.0 kmh N 2.8 mph4.5 kmh 29.34 in993.6 mb 0.00 in0.0 mm 0.00 in0.0 mm 0.00 in0.0 mm
09:06 PM 67.8°F19.9°C -166.0°F-110.0°C - Calm Calm 2.0 mph3.2 kmh 29.34 in993.6 mb 0.00 in0.0 mm 0.00 in0.0 mm 0.00 in0.0 mm
09:21 PM 67.3°F19.6°C -166.1°F-110.1°C - 1.4 mph N2.3 kmh N 3.4 mph5.5 kmh 29.34 in993.6 mb 0.00 in0.0 mm 0.00 in0.0 mm 0.00 in0.0 mm
09:36 PM 66.7°F19.3°C -166.1°F-110.1°C - 0.6 mph N1.0 kmh N 2.8 mph4.5 kmh 29.34 in993.6 mb 0.00 in0.0 mm 0.00 in0.0 mm 0.00 in0.0 mm
09:51 PM 66.0°F18.9°C -166.2°F-110.1°C - 1.4 mph N2.3 kmh N 4.0 mph6.4 kmh 29.34 in993.6 mb 0.00 in0.0 mm 0.00 in0.0 mm 0.00 in0.0 mm
10:06 PM 65.7°F18.7°C -166.2°F-110.1°C - Calm Calm 1.4 mph2.3 kmh 29.34 in993.6 mb 0.00 in0.0 mm 0.00 in0.0 mm 0.00 in0.0 mm
10:21 PM 64.9°F18.3°C -166.3°F-110.2°C - 0.6 mph N1.0 kmh N 2.8 mph4.5 kmh 29.35 in993.9 mb 0.00 in0.0 mm 0.00 in0.0 mm 0.00 in0.0 mm
10:36 PM 65.3°F18.5°C -166.3°F-110.2°C - Calm Calm 1.4 mph2.3 kmh 29.35 in993.9 mb 0.00 in0.0 mm 0.00 in0.0 mm 0.00 in0.0 mm
10:51 PM 65.5°F18.6°C -166.3°F-110.2°C - 0.6 mph N1.0 kmh N 2.0 mph3.2 kmh 29.35 in993.9 mb 0.00 in0.0 mm 0.00 in0.0 mm 0.00 in0.0 mm
11:06 PM 65.5°F18.6°C -166.3°F-110.2°C - 0.6 mph N1.0 kmh N 2.8 mph4.5 kmh 29.36 in994.2 mb 0.00 in0.0 mm 0.00 in0.0 mm 0.00 in0.0 mm
11:21 PM 65.8°F18.8°C -166.2°F-110.1°C - Calm Calm 2.0 mph3.2 kmh 29.36 in994.2 mb 0.00 in0.0 mm 0.00 in0.0 mm 0.00 in0.0 mm
11:36 PM 65.5°F18.6°C -166.3°F-110.2°C - Calm Calm 1.4 mph2.3 kmh 29.37 in994.6 mb 0.00 in0.0 mm 0.00 in0.0 mm 0.00 in0.0 mm
11:51 PM 64.9°F18.3°C -166.3°F-110.2°C - Calm Calm 0.6 mph1.0 kmh 29.36 in994.2 mb 0.00 in0.0 mm 0.00 in0.0 mm 0.00 in0.0 mm